sensor_id;sensor_type;location;lat;lon;timestamp;pressure;altitude;pressure_sealevel;temperature;humidity
41703;BME280;861;48.808;9.006;2023-01-16T00:01:58;95934.16;;;3.68;74.65
41703;BME280;861;48.808;9.006;2023-01-16T00:04:27;95931.03;;;3.99;73.66
41703;BME280;861;48.808;9.006;2023-01-16T00:06:54;95930.81;;;3.78;73.96
41703;BME280;861;48.808;9.006;2023-01-16T00:09:21;95923.28;;;3.57;75.14
41703;BME280;861;48.808;9.006;2023-01-16T00:11:47;95904.59;;;3.71;74.76
41703;BME280;861;48.808;9.006;2023-01-16T00:14:14;95910.31;;;3.66;73.83
41703;BME280;861;48.808;9.006;2023-01-16T00:16:40;95901.91;;;3.71;73.27
41703;BME280;861;48.808;9.006;2023-01-16T00:19:06;95901.22;;;3.78;73.62
41703;BME280;861;48.808;9.006;2023-01-16T00:21:33;95893.56;;;3.83;72.93
41703;BME280;861;48.808;9.006;2023-01-16T00:23:59;95905.16;;;3.87;72.86
41703;BME280;861;48.808;9.006;2023-01-16T00:26:28;95889.75;;;3.84;72.29
41703;BME280;861;48.808;9.006;2023-01-16T00:28:55;95885.81;;;3.78;73.28
41703;BME280;861;48.808;9.006;2023-01-16T00:31:22;95884.38;;;3.88;73.31
41703;BME280;861;48.808;9.006;2023-01-16T00:33:49;95885.13;;;3.85;73.33
41703;BME280;861;48.808;9.006;2023-01-16T00:36:15;95869.00;;;3.88;73.29
41703;BME280;861;48.808;9.006;2023-01-16T00:38:41;95865.69;;;4.05;72.26
41703;BME280;861;48.808;9.006;2023-01-16T00:41:07;95855.59;;;3.92;72.11
41703;BME280;861;48.808;9.006;2023-01-16T00:43:34;95851.28;;;3.84;72.91
41703;BME280;861;48.808;9.006;2023-01-16T00:46:01;95852.09;;;3.91;72.42
41703;BME280;861;48.808;9.006;2023-01-16T00:48:27;95839.41;;;3.88;72.72
41703;BME280;861;48.808;9.006;2023-01-16T00:50:53;95840.94;;;3.89;72.35
41703;BME280;861;48.808;9.006;2023-01-16T00:53:19;95848.25;;;3.89;72.17
41703;BME280;861;48.808;9.006;2023-01-16T00:55:45;95827.88;;;3.91;72.69
41703;BME280;861;48.808;9.006;2023-01-16T00:58:12;95823.31;;;3.95;72.18
41703;BME280;861;48.808;9.006;2023-01-16T01:00:39;95818.31;;;3.94;72.55
41703;BME280;861;48.808;9.006;2023-01-16T01:03:05;95817.38;;;3.76;73.00
41703;BME280;861;48.808;9.006;2023-01-16T01:05:37;95820.25;;;3.97;71.78
41703;BME280;861;48.808;9.006;2023-01-16T01:08:05;95813.19;;;3.82;72.67
41703;BME280;861;48.808;9.006;2023-01-16T01:10:32;95808.78;;;3.63;73.17
41703;BME280;861;48.808;9.006;2023-01-16T01:13:01;95802.38;;;3.75;73.48
41703;BME280;861;48.808;9.006;2023-01-16T01:15:27;95793.47;;;3.71;73.43
41703;BME280;861;48.808;9.006;2023-01-16T01:17:53;95791.97;;;3.77;73.29
41703;BME280;861;48.808;9.006;2023-01-16T01:20:19;95791.38;;;3.97;72.65
41703;BME280;861;48.808;9.006;2023-01-16T01:22:46;95799.84;;;3.96;72.44
41703;BME280;861;48.808;9.006;2023-01-16T01:25:12;95789.41;;;3.87;72.61
41703;BME280;861;48.808;9.006;2023-01-16T01:27:39;95798.63;;;3.90;72.52
41703;BME280;861;48.808;9.006;2023-01-16T01:30:07;95788.78;;;4.08;72.02
41703;BME280;861;48.808;9.006;2023-01-16T01:32:34;95787.88;;;3.90;72.21
41703;BME280;861;48.808;9.006;2023-01-16T01:35:08;95772.06;;;3.85;72.03
41703;BME280;861;48.808;9.006;2023-01-16T01:37:35;95767.38;;;3.78;72.26
41703;BME280;861;48.808;9.006;2023-01-16T01:40:04;95768.41;;;3.63;72.75
41703;BME280;861;48.808;9.006;2023-01-16T01:42:38;95758.91;;;3.73;72.88
41703;BME280;861;48.808;9.006;2023-01-16T01:45:31;95753.66;;;3.90;72.48
41703;BME280;861;48.808;9.006;2023-01-16T01:48:35;95751.72;;;3.91;72.04
41703;BME280;861;48.808;9.006;2023-01-16T01:51:19;95738.19;;;3.80;72.79
41703;BME280;861;48.808;9.006;2023-01-16T01:54:10;95747.75;;;3.74;72.92
41703;BME280;861;48.808;9.006;2023-01-16T01:56:59;95734.09;;;3.50;73.91
41703;BME280;861;48.808;9.006;2023-01-16T01:59:49;95731.97;;;3.73;73.17
41703;BME280;861;48.808;9.006;2023-01-16T02:02:34;95712.25;;;3.58;73.55
41703;BME280;861;48.808;9.006;2023-01-16T02:05:10;95710.50;;;3.80;72.92
41703;BME280;861;48.808;9.006;2023-01-16T02:07:41;95697.94;;;3.98;71.76
41703;BME280;861;48.808;9.006;2023-01-16T02:10:29;95693.59;;;3.79;72.24
41703;BME280;861;48.808;9.006;2023-01-16T02:13:04;95682.66;;;3.58;72.82
41703;BME280;861;48.808;9.006;2023-01-16T02:15:31;95674.91;;;3.50;72.97
41703;BME280;861;48.808;9.006;2023-01-16T02:17:57;95674.16;;;3.53;73.16
41703;BME280;861;48.808;9.006;2023-01-16T02:24:44;95645.34;;;3.57;73.55
41703;BME280;861;48.808;9.006;2023-01-16T02:37:36;95615.31;;;3.48;74.31
41703;BME280;861;48.808;9.006;2023-01-16T02:41:12;95597.34;;;3.62;73.82
41703;BME280;861;48.808;9.006;2023-01-16T02:50:38;95585.34;;;3.49;73.37
41703;BME280;861;48.808;9.006;2023-01-16T02:53:42;95569.31;;;3.67;72.99
41703;BME280;861;48.808;9.006;2023-01-16T02:56:33;95577.25;;;3.46;73.80
41703;BME280;861;48.808;9.006;2023-01-16T02:59:12;95551.53;;;3.48;73.03
41703;BME280;861;48.808;9.006;2023-01-16T03:01:41;95557.06;;;3.76;72.59
41703;BME280;861;48.808;9.006;2023-01-16T03:04:52;95546.28;;;3.73;72.11
41703;BME280;861;48.808;9.006;2023-01-16T03:11:25;95517.16;;;3.92;71.37
41703;BME280;861;48.808;9.006;2023-01-16T03:14:27;95503.28;;;3.90;72.28
41703;BME280;861;48.808;9.006;2023-01-16T03:21:10;95485.97;;;3.88;71.81
41703;BME280;861;48.808;9.006;2023-01-16T03:23:59;95479.06;;;3.97;71.70
41703;BME280;861;48.808;9.006;2023-01-16T03:26:56;95479.47;;;3.99;71.36
41703;BME280;861;48.808;9.006;2023-01-16T03:30:14;95477.91;;;3.91;72.23
41703;BME280;861;48.808;9.006;2023-01-16T03:33:13;95475.19;;;3.81;71.85
41703;BME280;861;48.808;9.006;2023-01-16T03:36:21;95460.25;;;3.94;71.16
41703;BME280;861;48.808;9.006;2023-01-16T03:38:59;95443.66;;;3.88;71.98
41703;BME280;861;48.808;9.006;2023-01-16T03:41:35;95444.81;;;3.84;72.15
41703;BME280;861;48.808;9.006;2023-01-16T03:44:27;95433.31;;;3.94;71.78
41703;BME280;861;48.808;9.006;2023-01-16T03:47:02;95425.59;;;3.85;71.73
41703;BME280;861;48.808;9.006;2023-01-16T03:49:43;95421.81;;;4.42;69.80
41703;BME280;861;48.808;9.006;2023-01-16T03:52:23;95416.81;;;4.20;70.87
41703;BME280;861;48.808;9.006;2023-01-16T03:55:21;95408.31;;;4.07;70.55
41703;BME280;861;48.808;9.006;2023-01-16T03:58:12;95404.13;;;4.20;70.40
41703;BME280;861;48.808;9.006;2023-01-16T04:01:13;95397.94;;;4.16;70.41
41703;BME280;861;48.808;9.006;2023-01-16T04:04:26;95386.03;;;4.17;69.90
41703;BME280;861;48.808;9.006;2023-01-16T04:10:13;95353.28;;;3.91;70.88
41703;BME280;861;48.808;9.006;2023-01-16T04:13:00;95333.69;;;3.90;71.41
41703;BME280;861;48.808;9.006;2023-01-16T04:15:35;95340.25;;;4.14;70.01
41703;BME280;861;48.808;9.006;2023-01-16T04:18:12;95329.84;;;4.09;69.78
41703;BME280;861;48.808;9.006;2023-01-16T04:20:45;95329.06;;;4.29;69.50
41703;BME280;861;48.808;9.006;2023-01-16T04:23:15;95339.09;;;4.22;68.91
41703;BME280;861;48.808;9.006;2023-01-16T04:25:44;95314.09;;;4.14;69.39
41703;BME280;861;48.808;9.006;2023-01-16T04:28:11;95306.00;;;4.07;70.11
41703;BME280;861;48.808;9.006;2023-01-16T04:30:37;95304.41;;;4.41;69.11
41703;BME280;861;48.808;9.006;2023-01-16T04:33:05;95284.84;;;4.23;69.10
41703;BME280;861;48.808;9.006;2023-01-16T04:35:33;95281.00;;;4.00;69.95
41703;BME280;861;48.808;9.006;2023-01-16T04:37:59;95277.13;;;4.11;69.84
41703;BME280;861;48.808;9.006;2023-01-16T04:40:26;95269.44;;;4.13;69.60
41703;BME280;861;48.808;9.006;2023-01-16T04:42:52;95260.19;;;4.32;68.68
41703;BME280;861;48.808;9.006;2023-01-16T04:45:22;95258.25;;;4.32;69.20
41703;BME280;861;48.808;9.006;2023-01-16T04:47:51;95244.81;;;4.15;69.30
41703;BME280;861;48.808;9.006;2023-01-16T04:50:19;95228.31;;;4.06;70.05
41703;BME280;861;48.808;9.006;2023-01-16T04:52:46;95221.38;;;4.15;69.62
41703;BME280;861;48.808;9.006;2023-01-16T04:55:14;95215.22;;;4.01;70.32
41703;BME280;861;48.808;9.006;2023-01-16T04:57:41;95201.81;;;3.90;70.58
41703;BME280;861;48.808;9.006;2023-01-16T05:00:10;95201.31;;;4.30;69.05
41703;BME280;861;48.808;9.006;2023-01-16T05:02:38;95180.19;;;4.22;69.42
41703;BME280;861;48.808;9.006;2023-01-16T05:05:05;95188.28;;;4.11;70.15
41703;BME280;861;48.808;9.006;2023-01-16T05:07:31;95166.00;;;4.11;69.36
41703;BME280;861;48.808;9.006;2023-01-16T05:09:58;95162.88;;;4.19;68.68
41703;BME280;861;48.808;9.006;2023-01-16T05:12:24;95160.59;;;4.14;68.92
41703;BME280;861;48.808;9.006;2023-01-16T05:14:50;95157.56;;;3.95;69.34
41703;BME280;861;48.808;9.006;2023-01-16T05:17:16;95146.03;;;3.94;69.96
41703;BME280;861;48.808;9.006;2023-01-16T05:19:42;95136.38;;;4.00;69.80
41703;BME280;861;48.808;9.006;2023-01-16T05:22:09;95130.59;;;4.09;69.20
41703;BME280;861;48.808;9.006;2023-01-16T05:24:35;95130.66;;;3.88;69.74
41703;BME280;861;48.808;9.006;2023-01-16T05:27:02;95115.63;;;4.01;69.42
41703;BME280;861;48.808;9.006;2023-01-16T05:29:28;95115.22;;;4.09;69.15
41703;BME280;861;48.808;9.006;2023-01-16T05:31:54;95109.78;;;4.16;68.69
41703;BME280;861;48.808;9.006;2023-01-16T05:34:20;95095.06;;;4.45;67.85
41703;BME280;861;48.808;9.006;2023-01-16T05:36:47;95091.72;;;4.20;67.58
41703;BME280;861;48.808;9.006;2023-01-16T05:39:13;95094.38;;;4.24;68.70
41703;BME280;861;48.808;9.006;2023-01-16T05:41:39;95082.53;;;4.04;69.25
41703;BME280;861;48.808;9.006;2023-01-16T05:44:05;95066.38;;;4.04;68.90
41703;BME280;861;48.808;9.006;2023-01-16T05:46:31;95063.69;;;4.04;69.14
41703;BME280;861;48.808;9.006;2023-01-16T05:48:57;95050.63;;;4.06;69.17
41703;BME280;861;48.808;9.006;2023-01-16T05:51:23;95036.75;;;4.11;69.61
41703;BME280;861;48.808;9.006;2023-01-16T05:53:53;95030.19;;;4.77;70.91
41703;BME280;861;48.808;9.006;2023-01-16T05:56:22;95034.09;;;4.69;67.56
41703;BME280;861;48.808;9.006;2023-01-16T05:58:48;95021.03;;;4.60;67.76
41703;BME280;861;48.808;9.006;2023-01-16T06:01:15;95010.16;;;4.74;66.65
41703;BME280;861;48.808;9.006;2023-01-16T06:03:41;95003.97;;;4.78;66.94
41703;BME280;861;48.808;9.006;2023-01-16T06:06:07;94988.84;;;4.91;66.76
41703;BME280;861;48.808;9.006;2023-01-16T06:08:33;94983.25;;;5.12;67.59
41703;BME280;861;48.808;9.006;2023-01-16T06:10:59;94986.38;;;4.62;66.89
41703;BME280;861;48.808;9.006;2023-01-16T06:13:26;94972.66;;;4.91;65.79
41703;BME280;861;48.808;9.006;2023-01-16T06:15:54;94957.69;;;4.42;66.73
41703;BME280;861;48.808;9.006;2023-01-16T06:18:20;94948.88;;;4.38;67.48
41703;BME280;861;48.808;9.006;2023-01-16T06:20:46;94941.88;;;4.44;67.49
41703;BME280;861;48.808;9.006;2023-01-16T06:23:12;94947.25;;;4.47;66.83
41703;BME280;861;48.808;9.006;2023-01-16T06:25:41;94930.00;;;4.38;66.76
41703;BME280;861;48.808;9.006;2023-01-16T06:28:08;94929.25;;;4.34;66.85
41703;BME280;861;48.808;9.006;2023-01-16T06:30:34;94924.66;;;4.31;66.74
41703;BME280;861;48.808;9.006;2023-01-16T06:33:00;94905.03;;;4.30;66.59
41703;BME280;861;48.808;9.006;2023-01-16T06:35:26;94914.59;;;4.38;66.89
41703;BME280;861;48.808;9.006;2023-01-16T06:37:52;94903.91;;;4.28;66.54
41703;BME280;861;48.808;9.006;2023-01-16T06:40:18;94892.38;;;4.27;66.32
41703;BME280;861;48.808;9.006;2023-01-16T06:42:45;94880.06;;;4.30;66.58
41703;BME280;861;48.808;9.006;2023-01-16T06:45:11;94873.88;;;4.73;64.92
41703;BME280;861;48.808;9.006;2023-01-16T06:47:37;94858.28;;;4.51;65.62
41703;BME280;861;48.808;9.006;2023-01-16T06:50:04;94869.44;;;4.53;65.56
41703;BME280;861;48.808;9.006;2023-01-16T06:52:30;94868.66;;;4.52;65.61
41703;BME280;861;48.808;9.006;2023-01-16T06:54:56;94850.03;;;4.31;65.71
41703;BME280;861;48.808;9.006;2023-01-16T06:57:22;94845.03;;;4.30;65.77
41703;BME280;861;48.808;9.006;2023-01-16T06:59:49;94848.81;;;4.39;66.02
41703;BME280;861;48.808;9.006;2023-01-16T07:02:16;94840.78;;;4.29;66.27
41703;BME280;861;48.808;9.006;2023-01-16T07:04:42;94835.25;;;4.46;65.75
41703;BME280;861;48.808;9.006;2023-01-16T07:07:10;94825.38;;;4.70;65.09
41703;BME280;861;48.808;9.006;2023-01-16T07:09:36;94827.00;;;4.64;64.50
41703;BME280;861;48.808;9.006;2023-01-16T07:12:02;94823.31;;;4.47;65.41
41703;BME280;861;48.808;9.006;2023-01-16T07:14:29;94824.47;;;4.46;65.65
41703;BME280;861;48.808;9.006;2023-01-16T07:17:14;94807.63;;;4.39;65.78
41703;BME280;861;48.808;9.006;2023-01-16T07:20:00;94800.56;;;4.11;66.28
41703;BME280;861;48.808;9.006;2023-01-16T07:22:46;94799.97;;;4.34;65.75
41703;BME280;861;48.808;9.006;2023-01-16T07:25:27;94806.00;;;4.48;65.28
41703;BME280;861;48.808;9.006;2023-01-16T07:27:59;94802.44;;;4.18;65.98
41703;BME280;861;48.808;9.006;2023-01-16T07:30:26;94791.03;;;4.44;65.36
41703;BME280;861;48.808;9.006;2023-01-16T07:32:53;94790.84;;;4.61;65.56
41703;BME280;861;48.808;9.006;2023-01-16T07:35:19;94803.53;;;4.64;65.43
41703;BME280;861;48.808;9.006;2023-01-16T07:37:45;94797.53;;;4.46;65.61
41703;BME280;861;48.808;9.006;2023-01-16T07:40:12;94797.16;;;4.44;65.19
41703;BME280;861;48.808;9.006;2023-01-16T07:42:39;94783.09;;;4.63;64.46
41703;BME280;861;48.808;9.006;2023-01-16T07:45:06;94779.00;;;4.86;63.87
41703;BME280;861;48.808;9.006;2023-01-16T07:47:34;94768.75;;;4.40;65.47
41703;BME280;861;48.808;9.006;2023-01-16T07:50:01;94752.06;;;4.52;64.98
41703;BME280;861;48.808;9.006;2023-01-16T07:52:27;94753.03;;;4.68;64.53
41703;BME280;861;48.808;9.006;2023-01-16T07:54:54;94754.47;;;4.43;65.44
41703;BME280;861;48.808;9.006;2023-01-16T07:57:20;94747.09;;;4.50;64.44
41703;BME280;861;48.808;9.006;2023-01-16T07:59:46;94736.31;;;4.50;64.98
41703;BME280;861;48.808;9.006;2023-01-16T08:02:12;94742.44;;;4.51;64.88
41703;BME280;861;48.808;9.006;2023-01-16T08:04:39;94726.44;;;4.70;64.49
41703;BME280;861;48.808;9.006;2023-01-16T08:07:05;94722.50;;;4.79;63.95
41703;BME280;861;48.808;9.006;2023-01-16T08:09:31;94711.50;;;4.66;64.60
41703;BME280;861;48.808;9.006;2023-01-16T08:11:57;94707.31;;;4.61;64.53
41703;BME280;861;48.808;9.006;2023-01-16T08:14:23;94704.63;;;4.92;64.29
41703;BME280;861;48.808;9.006;2023-01-16T08:16:50;94694.06;;;5.04;63.79
41703;BME280;861;48.808;9.006;2023-01-16T08:19:16;94693.84;;;4.92;63.76
41703;BME280;861;48.808;9.006;2023-01-16T08:21:42;94698.00;;;4.96;64.01
41703;BME280;861;48.808;9.006;2023-01-16T08:24:09;94683.72;;;5.26;62.31
41703;BME280;861;48.808;9.006;2023-01-16T08:26:39;94684.66;;;5.12;63.57
41703;BME280;861;48.808;9.006;2023-01-16T08:29:06;94680.94;;;4.76;63.80
41703;BME280;861;48.808;9.006;2023-01-16T08:31:33;94684.34;;;4.80;62.99
41703;BME280;861;48.808;9.006;2023-01-16T08:33:59;94677.13;;;4.73;64.31
41703;BME280;861;48.808;9.006;2023-01-16T08:36:25;94678.84;;;4.87;63.50
41703;BME280;861;48.808;9.006;2023-01-16T08:38:52;94676.78;;;4.98;63.59
41703;BME280;861;48.808;9.006;2023-01-16T08:41:19;94678.03;;;4.90;62.76
41703;BME280;861;48.808;9.006;2023-01-16T08:44:04;94680.16;;;5.06;63.13
41703;BME280;861;48.808;9.006;2023-01-16T08:49:49;94666.56;;;5.13;61.97
41703;BME280;861;48.808;9.006;2023-01-16T08:52:35;94668.19;;;5.07;62.44
41703;BME280;861;48.808;9.006;2023-01-16T08:55:04;94676.97;;;5.11;62.99
41703;BME280;861;48.808;9.006;2023-01-16T08:57:32;94672.47;;;5.31;61.15
41703;BME280;861;48.808;9.006;2023-01-16T08:59:59;94668.56;;;5.09;62.34
41703;BME280;861;48.808;9.006;2023-01-16T09:02:27;94672.41;;;5.08;61.92
41703;BME280;861;48.808;9.006;2023-01-16T09:04:55;94679.69;;;5.11;62.07
41703;BME280;861;48.808;9.006;2023-01-16T09:07:22;94692.44;;;5.33;61.65
41703;BME280;861;48.808;9.006;2023-01-16T09:09:49;94689.53;;;5.47;61.45
41703;BME280;861;48.808;9.006;2023-01-16T09:12:16;94708.25;;;5.58;60.96
41703;BME280;861;48.808;9.006;2023-01-16T09:15:01;94687.06;;;5.33;60.38
41703;BME280;861;48.808;9.006;2023-01-16T09:17:28;94708.59;;;5.10;61.17
41703;BME280;861;48.808;9.006;2023-01-16T09:19:54;94684.66;;;5.12;61.50
41703;BME280;861;48.808;9.006;2023-01-16T09:22:22;94680.25;;;4.99;62.52
41703;BME280;861;48.808;9.006;2023-01-16T09:24:49;94674.16;;;4.95;62.42
41703;BME280;861;48.808;9.006;2023-01-16T09:27:15;94667.88;;;4.74;62.38
41703;BME280;861;48.808;9.006;2023-01-16T09:29:44;94658.47;;;4.86;62.38
41703;BME280;861;48.808;9.006;2023-01-16T09:32:11;94646.06;;;4.92;63.25
41703;BME280;861;48.808;9.006;2023-01-16T09:34:39;94656.56;;;4.87;62.49
41703;BME280;861;48.808;9.006;2023-01-16T09:37:07;94624.66;;;5.08;61.98
41703;BME280;861;48.808;9.006;2023-01-16T09:39:35;94623.13;;;5.07;61.69
41703;BME280;861;48.808;9.006;2023-01-16T09:42:38;94613.84;;;5.08;63.46
41703;BME280;861;48.808;9.006;2023-01-16T09:45:36;94622.81;;;5.02;62.28
41703;BME280;861;48.808;9.006;2023-01-16T09:48:23;94608.81;;;5.33;62.27
41703;BME280;861;48.808;9.006;2023-01-16T09:51:05;94599.97;;;5.10;62.55
41703;BME280;861;48.808;9.006;2023-01-16T09:54:21;94598.38;;;5.12;62.66
41703;BME280;861;48.808;9.006;2023-01-16T09:57:17;94606.78;;;5.18;62.08
41703;BME280;861;48.808;9.006;2023-01-16T10:00:06;94590.00;;;5.30;61.59
41703;BME280;861;48.808;9.006;2023-01-16T10:02:36;94594.09;;;5.38;62.19
41703;BME280;861;48.808;9.006;2023-01-16T10:05:05;94590.19;;;5.19;62.09
41703;BME280;861;48.808;9.006;2023-01-16T10:08:16;94584.19;;;5.31;61.38
41703;BME280;861;48.808;9.006;2023-01-16T10:11:53;94569.34;;;5.43;61.67
41703;BME280;861;48.808;9.006;2023-01-16T10:15:24;94559.03;;;5.61;61.10
41703;BME280;861;48.808;9.006;2023-01-16T10:31:18;94542.25;;;5.50;60.03
41703;BME280;861;48.808;9.006;2023-01-16T10:34:14;94531.22;;;5.41;60.14
41703;BME280;861;48.808;9.006;2023-01-16T10:36:55;94532.06;;;5.38;59.96
41703;BME280;861;48.808;9.006;2023-01-16T10:39:34;94522.31;;;5.44;59.54
41703;BME280;861;48.808;9.006;2023-01-16T10:42:31;94517.25;;;5.46;59.14
41703;BME280;861;48.808;9.006;2023-01-16T10:45:32;94519.28;;;5.42;61.08
41703;BME280;861;48.808;9.006;2023-01-16T10:48:21;94506.22;;;5.40;59.40
41703;BME280;861;48.808;9.006;2023-01-16T10:51:09;94502.97;;;5.68;58.68
41703;BME280;861;48.808;9.006;2023-01-16T10:53:38;94502.38;;;5.77;58.43
41703;BME280;861;48.808;9.006;2023-01-16T10:56:05;94500.94;;;5.72;58.17
41703;BME280;861;48.808;9.006;2023-01-16T10:58:38;94487.50;;;5.69;58.83
41703;BME280;861;48.808;9.006;2023-01-16T11:01:22;94471.06;;;5.63;60.07
41703;BME280;861;48.808;9.006;2023-01-16T11:04:00;94478.88;;;5.97;60.07
41703;BME280;861;48.808;9.006;2023-01-16T11:06:29;94469.34;;;5.92;59.27
41703;BME280;861;48.808;9.006;2023-01-16T11:11:42;94461.66;;;6.27;60.17
41703;BME280;861;48.808;9.006;2023-01-16T11:14:42;94448.91;;;6.27;60.72
41703;BME280;861;48.808;9.006;2023-01-16T11:17:37;94429.47;;;6.32;60.79
41703;BME280;861;48.808;9.006;2023-01-16T11:20:35;94449.06;;;6.36;61.33
41703;BME280;861;48.808;9.006;2023-01-16T11:23:21;94436.75;;;6.19;61.73
41703;BME280;861;48.808;9.006;2023-01-16T11:25:54;94423.03;;;6.10;62.21
41703;BME280;861;48.808;9.006;2023-01-16T11:28:29;94413.63;;;6.50;61.56
41703;BME280;861;48.808;9.006;2023-01-16T11:31:05;94402.97;;;6.27;62.51
41703;BME280;861;48.808;9.006;2023-01-16T11:34:03;94394.38;;;6.16;62.86
41703;BME280;861;48.808;9.006;2023-01-16T11:36:38;94394.94;;;6.07;62.93
41703;BME280;861;48.808;9.006;2023-01-16T11:39:19;94374.34;;;6.13;63.10
41703;BME280;861;48.808;9.006;2023-01-16T11:41:55;94363.88;;;6.15;63.15
41703;BME280;861;48.808;9.006;2023-01-16T11:44:33;94355.59;;;6.39;63.21
41703;BME280;861;48.808;9.006;2023-01-16T11:47:26;94339.50;;;6.19;64.11
41703;BME280;861;48.808;9.006;2023-01-16T11:49:54;94343.97;;;6.26;63.91
41703;BME280;861;48.808;9.006;2023-01-16T11:52:24;94348.19;;;6.10;64.17
41703;BME280;861;48.808;9.006;2023-01-16T11:55:04;94318.38;;;6.14;64.17
41703;BME280;861;48.808;9.006;2023-01-16T11:57:41;94319.75;;;6.22;64.18
41703;BME280;861;48.808;9.006;2023-01-16T12:00:52;94313.47;;;6.41;64.19
41703;BME280;861;48.808;9.006;2023-01-16T12:04:07;94309.34;;;6.20;65.89
41703;BME280;861;48.808;9.006;2023-01-16T12:07:24;94298.72;;;5.97;65.46
41703;BME280;861;48.808;9.006;2023-01-16T12:10:41;94300.06;;;6.21;65.25
41703;BME280;861;48.808;9.006;2023-01-16T12:13:41;94292.88;;;6.31;65.11
41703;BME280;861;48.808;9.006;2023-01-16T12:17:07;94277.31;;;6.35;65.69
41703;BME280;861;48.808;9.006;2023-01-16T12:20:27;94272.28;;;6.21;65.79
41703;BME280;861;48.808;9.006;2023-01-16T12:23:56;94270.19;;;6.29;67.19
41703;BME280;861;48.808;9.006;2023-01-16T12:27:46;94255.88;;;6.44;66.47
41703;BME280;861;48.808;9.006;2023-01-16T12:37:49;94251.88;;;6.20;67.56
41703;BME280;861;48.808;9.006;2023-01-16T12:41:16;94219.84;;;6.35;67.76
41703;BME280;861;48.808;9.006;2023-01-16T12:54:58;94183.91;;;6.21;68.86
41703;BME280;861;48.808;9.006;2023-01-16T13:01:21;94156.00;;;6.41;67.63
41703;BME280;861;48.808;9.006;2023-01-16T13:04:07;94155.22;;;6.40;68.00
41703;BME280;861;48.808;9.006;2023-01-16T13:06:57;94158.34;;;6.39;68.22
41703;BME280;861;48.808;9.006;2023-01-16T13:09:57;94166.31;;;6.71;67.26
41703;BME280;861;48.808;9.006;2023-01-16T13:12:53;94142.19;;;6.64;67.68
41703;BME280;861;48.808;9.006;2023-01-16T13:15:46;94132.25;;;6.86;67.48
41703;BME280;861;48.808;9.006;2023-01-16T13:19:16;94117.69;;;6.96;66.48
41703;BME280;861;48.808;9.006;2023-01-16T13:22:36;94108.50;;;6.93;66.79
41703;BME280;861;48.808;9.006;2023-01-16T13:25:32;94100.06;;;6.91;66.79
41703;BME280;861;48.808;9.006;2023-01-16T13:28:37;94106.31;;;7.26;65.35
41703;BME280;861;48.808;9.006;2023-01-16T13:31:31;94104.91;;;7.09;65.94
41703;BME280;861;48.808;9.006;2023-01-16T13:34:36;94104.50;;;7.57;66.05
41703;BME280;861;48.808;9.006;2023-01-16T13:37:58;94096.91;;;7.99;63.45
41703;BME280;861;48.808;9.006;2023-01-16T13:44:20;94078.44;;;8.06;63.28
41703;BME280;861;48.808;9.006;2023-01-16T13:47:19;94079.66;;;8.27;63.85
41703;BME280;861;48.808;9.006;2023-01-16T13:49:53;94114.34;;;8.32;62.43
41703;BME280;861;48.808;9.006;2023-01-16T13:52:27;94090.13;;;8.37;62.40
41703;BME280;861;48.808;9.006;2023-01-16T13:55:01;94117.53;;;8.61;61.71
41703;BME280;861;48.808;9.006;2023-01-16T13:57:33;94084.94;;;8.52;61.97
41703;BME280;861;48.808;9.006;2023-01-16T14:00:12;94091.72;;;8.56;62.22
41703;BME280;861;48.808;9.006;2023-01-16T14:02:45;94075.47;;;8.13;62.84
41703;BME280;861;48.808;9.006;2023-01-16T14:08:52;94080.47;;;7.59;64.30
41703;BME280;861;48.808;9.006;2023-01-16T14:12:02;94084.44;;;7.20;65.25
41703;BME280;861;48.808;9.006;2023-01-16T14:14:47;94066.06;;;6.90;65.20
41703;BME280;861;48.808;9.006;2023-01-16T14:23:35;94068.56;;;6.72;66.93
41703;BME280;861;48.808;9.006;2023-01-16T14:29:21;94055.38;;;6.37;69.28
41703;BME280;861;48.808;9.006;2023-01-16T14:34:58;94023.50;;;6.57;69.61
41703;BME280;861;48.808;9.006;2023-01-16T14:37:57;94022.81;;;6.65;69.25
41703;BME280;861;48.808;9.006;2023-01-16T14:40:39;94009.44;;;6.49;69.48
41703;BME280;861;48.808;9.006;2023-01-16T14:43:34;94014.06;;;6.11;69.75
41703;BME280;861;48.808;9.006;2023-01-16T14:56:00;93984.66;;;6.00;71.48
41703;BME280;861;48.808;9.006;2023-01-16T14:58:48;93966.84;;;6.15;70.40
41703;BME280;861;48.808;9.006;2023-01-16T15:01:37;93976.88;;;6.02;70.20
41703;BME280;861;48.808;9.006;2023-01-16T15:04:44;93986.25;;;5.85;70.85
41703;BME280;861;48.808;9.006;2023-01-16T15:07:22;93961.78;;;6.05;70.36
41703;BME280;861;48.808;9.006;2023-01-16T15:10:03;93973.31;;;6.31;69.36
41703;BME280;861;48.808;9.006;2023-01-16T15:12:43;93965.44;;;6.36;69.02
41703;BME280;861;48.808;9.006;2023-01-16T15:15:27;93960.91;;;6.20;69.50
41703;BME280;861;48.808;9.006;2023-01-16T15:17:59;93966.09;;;6.15;69.03
41703;BME280;861;48.808;9.006;2023-01-16T15:20:46;93968.13;;;5.98;70.14
41703;BME280;861;48.808;9.006;2023-01-16T15:23:37;93986.72;;;5.96;69.93
41703;BME280;861;48.808;9.006;2023-01-16T15:29:14;93981.72;;;5.95;72.20
41703;BME280;861;48.808;9.006;2023-01-16T15:32:04;93983.66;;;5.94;72.54
41703;BME280;861;48.808;9.006;2023-01-16T15:34:41;93999.59;;;5.76;74.80
41703;BME280;861;48.808;9.006;2023-01-16T15:37:24;94005.94;;;5.70;76.15
41703;BME280;861;48.808;9.006;2023-01-16T15:39:53;93987.72;;;5.45;78.86
41703;BME280;861;48.808;9.006;2023-01-16T15:42:26;93982.47;;;5.54;78.69
41703;BME280;861;48.808;9.006;2023-01-16T15:45:25;93982.91;;;5.24;79.17
41703;BME280;861;48.808;9.006;2023-01-16T15:48:29;93973.66;;;5.38;79.60
41703;BME280;861;48.808;9.006;2023-01-16T15:51:12;93984.69;;;5.15;81.73
41703;BME280;861;48.808;9.006;2023-01-16T15:53:48;93999.63;;;5.03;81.39
41703;BME280;861;48.808;9.006;2023-01-16T15:56:43;93972.63;;;5.19;81.24
41703;BME280;861;48.808;9.006;2023-01-16T15:59:31;93980.84;;;5.00;82.86
41703;BME280;861;48.808;9.006;2023-01-16T16:02:26;93973.09;;;5.02;82.35
41703;BME280;861;48.808;9.006;2023-01-16T16:05:01;93994.69;;;4.69;85.75
41703;BME280;861;48.808;9.006;2023-01-16T16:07:30;93987.00;;;4.84;83.80
41703;BME280;861;48.808;9.006;2023-01-16T16:10:03;93987.84;;;4.65;84.36
41703;BME280;861;48.808;9.006;2023-01-16T16:12:30;93976.16;;;4.88;84.78
41703;BME280;861;48.808;9.006;2023-01-16T16:15:21;93970.84;;;4.84;84.98
41703;BME280;861;48.808;9.006;2023-01-16T16:18:19;93977.91;;;4.46;87.44